createdAt,value
2022-11-10T00:01:08.107Z,5.72
2022-11-10T00:04:10.180Z,5.77
2022-11-10T00:07:12.300Z,6.88
2022-11-10T00:10:15.554Z,5.80
2022-11-10T00:13:17.564Z,6.78
2022-11-10T00:16:38.079Z,5.28
2022-11-10T00:19:41.035Z,7.10
2022-11-10T00:22:43.087Z,6.95
2022-11-10T00:25:45.132Z,7.75
2022-11-10T00:28:47.158Z,8.77
2022-11-10T00:31:49.376Z,8.75
2022-11-10T00:34:51.767Z,6.50
2022-11-10T00:37:53.740Z,6.45
2022-11-10T00:40:55.816Z,6.90
2022-11-10T00:43:58.393Z,6.95
2022-11-10T00:47:02.795Z,5.82
2022-11-10T00:50:05.226Z,6.90
2022-11-10T00:53:07.802Z,6.03
2022-11-10T00:56:09.938Z,5.47
2022-11-10T00:59:12.000Z,5.30
2022-11-10T01:02:14.087Z,6.38
2022-11-10T01:05:17.194Z,5.45
2022-11-10T01:08:19.340Z,5.97
2022-11-10T01:11:27.238Z,5.65
2022-11-10T01:14:29.328Z,4.78
2022-11-10T01:17:31.411Z,5.28
2022-11-10T01:20:35.082Z,5.90
2022-11-10T01:23:37.247Z,5.53
2022-11-10T01:26:39.345Z,6.10
2022-11-10T01:29:41.545Z,4.63
2022-11-10T01:32:43.601Z,5.13
2022-11-10T01:35:46.314Z,5.85
2022-11-10T01:38:48.341Z,4.13
2022-11-10T01:41:51.423Z,4.85
2022-11-10T01:45:24.769Z,5.10
2022-11-10T01:48:57.452Z,6.63
2022-11-10T01:52:06.555Z,5.75
2022-11-10T01:55:08.759Z,5.47
2022-11-10T01:58:13.935Z,7.43
2022-11-10T02:01:16.508Z,6.10
2022-11-10T02:04:20.691Z,5.88
2022-11-10T02:07:23.377Z,4.65
2022-11-10T02:10:25.502Z,5.77
2022-11-10T02:13:28.527Z,5.53
2022-11-10T02:16:31.209Z,5.15
2022-11-10T02:19:41.387Z,5.20
2022-11-10T02:22:44.117Z,5.22
2022-11-10T02:25:46.151Z,5.00
2022-11-10T02:28:48.337Z,4.23
2022-11-10T02:31:50.620Z,5.30
2022-11-10T02:34:53.046Z,4.97
2022-11-10T02:37:55.070Z,4.97
2022-11-10T02:40:57.158Z,5.70
2022-11-10T02:43:59.952Z,5.03
2022-11-10T02:47:01.998Z,4.40
2022-11-10T02:50:04.252Z,4.87
2022-11-10T02:53:06.827Z,5.33
2022-11-10T02:56:09.464Z,5.20
2022-11-10T02:59:11.484Z,5.30
2022-11-10T03:02:14.140Z,4.93
2022-11-10T03:05:16.327Z,5.30
2022-11-10T03:08:18.369Z,4.90
2022-11-10T03:11:20.580Z,4.93
2022-11-10T03:14:22.646Z,3.30
2022-11-10T03:17:24.762Z,3.80
2022-11-10T03:20:26.802Z,4.23
2022-11-10T03:23:28.914Z,4.53
2022-11-10T03:26:30.922Z,5.43
2022-11-10T03:29:33.280Z,3.37
2022-11-10T03:32:35.391Z,4.53
2022-11-10T03:35:37.470Z,3.50
2022-11-10T03:38:39.644Z,4.07
2022-11-10T03:41:42.673Z,3.60
2022-11-10T03:44:44.868Z,4.47
2022-11-10T03:47:48.709Z,3.60
2022-11-10T03:50:50.970Z,4.00
2022-11-10T03:53:53.019Z,4.97
2022-11-10T03:56:55.331Z,3.60
2022-11-10T03:59:57.374Z,3.87
2022-11-10T04:02:59.525Z,3.07
2022-11-10T04:06:20.117Z,2.83
2022-11-10T04:09:22.180Z,5.10
2022-11-10T04:12:57.365Z,5.30
2022-11-10T04:16:00.021Z,4.10
2022-11-10T04:19:02.288Z,4.07
2022-11-10T04:22:04.594Z,3.60
2022-11-10T04:25:07.156Z,2.83
2022-11-10T04:28:12.059Z,3.22
2022-11-10T04:31:15.440Z,3.23
2022-11-10T04:34:17.650Z,2.97
2022-11-10T04:37:19.679Z,3.03
2022-11-10T04:40:21.780Z,4.40
2022-11-10T04:43:24.147Z,4.90
2022-11-10T04:46:39.579Z,6.20
2022-11-10T04:49:41.628Z,5.60
2022-11-10T04:52:43.668Z,5.50
2022-11-10T04:55:46.534Z,8.30
2022-11-10T04:58:48.927Z,7.90
2022-11-10T05:01:55.782Z,9.10
2022-11-10T05:04:57.935Z,8.20
2022-11-10T05:08:01.039Z,10.17
2022-11-10T05:11:05.034Z,11.75
2022-11-10T05:14:07.213Z,13.53
2022-11-10T05:17:15.101Z,16.00
2022-11-10T05:20:24.609Z,19.57
2022-11-10T05:23:38.719Z,20.03
2022-11-10T05:26:40.746Z,15.27
2022-11-10T05:29:42.809Z,20.63
2022-11-10T05:32:44.981Z,16.53
2022-11-10T05:35:52.581Z,22.27
2022-11-10T05:38:54.695Z,21.40
2022-11-10T05:41:56.806Z,20.07
2022-11-10T05:44:58.821Z,25.10
2022-11-10T05:48:01.044Z,25.83
2022-11-10T05:51:03.086Z,25.40
2022-11-10T05:54:05.238Z,23.70
2022-11-10T05:57:07.304Z,25.23
2022-11-10T06:00:10.260Z,23.93
2022-11-10T06:03:17.953Z,20.83
2022-11-10T06:06:20.778Z,21.23
2022-11-10T06:09:23.761Z,22.37
2022-11-10T06:12:47.049Z,19.10
2022-11-10T06:15:50.558Z,19.80
2022-11-10T06:18:52.881Z,17.90
2022-11-10T06:22:01.331Z,17.00
2022-11-10T06:25:06.884Z,15.77
2022-11-10T06:28:09.889Z,15.57
2022-11-10T06:31:12.009Z,13.73
2022-11-10T06:34:14.109Z,15.50
2022-11-10T06:37:16.395Z,13.40
2022-11-10T06:40:18.455Z,13.50
2022-11-10T06:43:20.863Z,14.03
2022-11-10T06:46:23.262Z,12.77
2022-11-10T06:49:25.475Z,14.23
2022-11-10T06:52:27.950Z,12.93
2022-11-10T06:55:30.725Z,12.13
2022-11-10T06:58:32.774Z,14.03
2022-11-10T07:01:34.832Z,14.63
2022-11-10T07:04:36.854Z,11.60
2022-11-10T07:07:39.074Z,10.43
2022-11-10T07:10:41.216Z,11.27
2022-11-10T07:13:43.757Z,10.60
2022-11-10T07:16:46.059Z,9.73
2022-11-10T07:19:48.165Z,10.37
2022-11-10T07:22:50.223Z,8.30
2022-11-10T07:25:52.251Z,8.87
2022-11-10T07:28:54.294Z,10.33
2022-11-10T07:31:56.697Z,8.93
2022-11-10T07:34:59.984Z,8.40
2022-11-10T07:38:05.670Z,9.93
2022-11-10T07:41:08.121Z,9.80
2022-11-10T07:44:12.220Z,9.48
2022-11-10T07:47:14.213Z,9.60
2022-11-10T07:50:17.336Z,11.80
2022-11-10T07:53:23.707Z,11.90
2022-11-10T07:56:26.814Z,14.87
2022-11-10T07:59:28.835Z,15.23
2022-11-10T08:02:30.937Z,17.60
2022-11-10T08:05:33.695Z,15.60
2022-11-10T08:08:35.833Z,16.40
2022-11-10T08:11:37.954Z,14.73
2022-11-10T08:14:40.041Z,15.13
2022-11-10T08:17:42.073Z,15.93
2022-11-10T08:20:47.109Z,17.33
2022-11-10T08:23:49.559Z,19.33
2022-11-10T08:26:51.624Z,16.00
2022-11-10T08:29:56.691Z,16.93
2022-11-10T08:33:03.393Z,15.10
2022-11-10T08:36:05.829Z,15.67
2022-11-10T08:39:07.894Z,13.95
2022-11-10T08:42:10.097Z,15.45
2022-11-10T08:45:12.448Z,18.25
2022-11-10T08:48:17.300Z,17.13
2022-11-10T08:51:19.341Z,18.30
2022-11-10T08:54:21.473Z,17.27
2022-11-10T08:57:23.715Z,19.23
2022-11-10T09:00:28.804Z,19.77
2022-11-10T09:03:34.073Z,20.30
2022-11-10T09:06:36.337Z,24.65
2022-11-10T09:09:38.431Z,22.17
2022-11-10T09:12:41.738Z,19.38
2022-11-10T09:15:45.115Z,18.40
2022-11-10T09:18:47.181Z,16.42
2022-11-10T09:21:49.322Z,16.70
2022-11-10T09:24:51.403Z,15.75
2022-11-10T09:27:53.478Z,12.98
2022-11-10T09:30:55.738Z,13.35
2022-11-10T09:33:59.491Z,12.97
2022-11-10T09:37:02.536Z,12.90
2022-11-10T09:40:05.759Z,9.48
2022-11-10T09:43:22.976Z,8.90
2022-11-10T09:46:30.548Z,7.97
2022-11-10T09:49:38.780Z,8.52
2022-11-10T09:52:42.252Z,6.55
2022-11-10T09:55:49.463Z,6.25
2022-11-10T09:58:52.235Z,7.72
2022-11-10T10:02:44.523Z,6.32
2022-11-10T10:06:09.939Z,5.43
2022-11-10T10:09:24.305Z,5.00
2022-11-10T10:12:37.711Z,6.28
2022-11-10T10:16:03.389Z,6.00
2022-11-10T10:19:32.044Z,4.63
2022-11-10T10:22:58.477Z,4.82
2022-11-10T10:26:01.732Z,7.68
2022-11-10T10:32:15.918Z,5.18
2022-11-10T10:35:18.796Z,4.45
2022-11-10T10:38:34.997Z,4.40
2022-11-10T10:41:37.260Z,3.97
2022-11-10T10:44:39.483Z,3.85
2022-11-10T10:47:43.987Z,3.75
2022-11-10T10:50:46.714Z,3.30
2022-11-10T10:53:48.879Z,3.13
2022-11-10T10:56:51.177Z,3.20
2022-11-10T11:00:18.425Z,2.75
2022-11-10T11:03:27.827Z,3.08
2022-11-10T11:06:39.931Z,3.45
2022-11-10T11:09:44.158Z,2.97
2022-11-10T11:12:46.297Z,3.08
2022-11-10T11:16:07.916Z,3.33
2022-11-10T11:19:11.387Z,3.90
2022-11-10T11:22:35.566Z,3.78
2022-11-10T11:25:42.608Z,4.30
2022-11-10T11:28:47.649Z,4.07
2022-11-10T11:32:14.272Z,3.40
2022-11-10T11:35:50.870Z,3.42
2022-11-10T11:39:04.850Z,3.67
2022-11-10T11:42:06.925Z,3.35
2022-11-10T11:45:35.538Z,2.83
2022-11-10T11:48:55.917Z,3.65
2022-11-10T11:52:04.055Z,4.18
2022-11-10T11:55:17.814Z,4.88
2022-11-10T11:58:51.070Z,4.43
2022-11-10T12:01:56.252Z,4.53
2022-11-10T12:05:20.118Z,3.80
2022-11-10T12:09:04.566Z,4.00
2022-11-10T12:12:18.576Z,4.17
2022-11-10T12:15:23.525Z,3.67
2022-11-10T12:18:36.342Z,3.25
2022-11-10T12:22:07.647Z,4.20
2022-11-10T12:25:24.713Z,5.40
2022-11-10T12:28:39.946Z,3.17
2022-11-10T12:31:45.682Z,3.33
2022-11-10T12:34:52.461Z,3.30
2022-11-10T12:38:01.756Z,3.72
2022-11-10T12:41:10.482Z,3.08
2022-11-10T12:44:31.240Z,3.63
2022-11-10T12:47:43.721Z,3.28
2022-11-10T12:50:51.584Z,4.20
2022-11-10T12:53:54.271Z,3.10
2022-11-10T12:57:01.753Z,2.63
2022-11-10T13:00:28.010Z,2.70
2022-11-10T13:03:38.510Z,3.10
2022-11-10T13:06:52.825Z,3.45
2022-11-10T13:10:24.178Z,2.95
2022-11-10T13:13:26.921Z,2.83
2022-11-10T13:16:38.924Z,2.58
2022-11-10T13:19:40.977Z,3.28
2022-11-10T13:22:43.087Z,1.95
2022-11-10T13:25:52.633Z,2.55
2022-11-10T13:28:59.964Z,3.25
2022-11-10T13:32:08.257Z,2.88
2022-11-10T13:35:28.438Z,2.78
2022-11-10T13:38:44.548Z,2.40
2022-11-10T13:42:01.450Z,3.13
2022-11-10T13:45:28.473Z,1.92
2022-11-10T13:48:41.830Z,2.47
2022-11-10T13:52:08.683Z,2.33
2022-11-10T13:55:16.513Z,2.35
2022-11-10T13:58:26.134Z,2.33
2022-11-10T14:01:30.635Z,1.80
2022-11-10T14:04:36.001Z,1.45
2022-11-10T14:07:44.953Z,1.95
2022-11-10T14:10:51.829Z,2.13
2022-11-10T14:13:59.928Z,2.10
2022-11-10T14:17:02.204Z,1.60
2022-11-10T14:20:05.083Z,2.15
2022-11-10T14:23:16.363Z,2.35
2022-11-10T14:26:33.066Z,3.13
2022-11-10T14:29:40.275Z,1.60
2022-11-10T14:32:42.492Z,1.77
2022-11-10T14:36:04.593Z,2.72
2022-11-10T14:39:07.417Z,1.83
2022-11-10T14:42:19.237Z,2.20
2022-11-10T14:45:24.582Z,2.85
2022-11-10T14:48:29.710Z,2.53
2022-11-10T14:51:34.703Z,2.50
2022-11-10T14:54:38.350Z,1.30
2022-11-10T14:57:40.912Z,3.55
2022-11-10T15:00:44.803Z,1.98
2022-11-10T15:03:47.025Z,3.05
2022-11-10T15:06:50.976Z,2.22
2022-11-10T15:10:16.044Z,1.92
2022-11-10T15:16:30.322Z,1.98
2022-11-10T15:19:55.678Z,1.80
2022-11-10T15:22:59.907Z,2.90
2022-11-10T15:26:02.546Z,2.22
2022-11-10T15:29:04.814Z,2.67
2022-11-10T15:32:16.363Z,2.58
2022-11-10T15:35:24.289Z,3.47
2022-11-10T15:38:30.367Z,1.63
2022-11-10T15:41:35.784Z,4.90
2022-11-10T15:44:37.849Z,3.60
2022-11-10T15:47:41.591Z,2.40
2022-11-10T15:50:48.985Z,3.20
2022-11-10T15:53:52.098Z,2.90
2022-11-10T15:56:54.414Z,2.80
2022-11-10T15:59:56.491Z,3.72
2022-11-10T16:02:58.920Z,2.35
2022-11-10T16:06:00.906Z,2.33
2022-11-10T16:09:03.783Z,3.53
2022-11-10T16:12:19.540Z,2.10
2022-11-10T16:15:21.686Z,3.55
2022-11-10T16:18:28.422Z,2.50
2022-11-10T16:21:30.562Z,2.90
2022-11-10T16:24:32.542Z,2.22
2022-11-10T16:27:35.758Z,2.67
2022-11-10T16:30:38.247Z,3.28
2022-11-10T16:33:41.610Z,2.40
2022-11-10T16:36:46.136Z,4.07
2022-11-10T16:39:48.234Z,2.25
2022-11-10T16:42:50.647Z,2.85
2022-11-10T16:45:55.851Z,3.00
2022-11-10T16:49:01.643Z,3.40
2022-11-10T16:52:11.636Z,2.38
2022-11-10T16:55:14.301Z,2.83
2022-11-10T16:58:16.430Z,3.65
2022-11-10T17:01:26.652Z,2.72
2022-11-10T17:04:28.857Z,2.40
2022-11-10T17:07:30.971Z,2.88
2022-11-10T17:10:33.117Z,3.03
2022-11-10T17:13:35.408Z,2.75
2022-11-10T17:16:39.350Z,3.17
2022-11-10T17:19:41.883Z,4.15
2022-11-10T17:22:44.244Z,3.33
2022-11-10T17:25:47.491Z,3.47
2022-11-10T17:28:49.889Z,4.22
2022-11-10T17:31:52.945Z,3.83
2022-11-10T17:34:55.004Z,4.28
2022-11-10T17:37:59.570Z,2.90
2022-11-10T17:41:01.694Z,3.50
2022-11-10T17:44:03.874Z,4.43
2022-11-10T17:47:06.055Z,4.38
2022-11-10T17:50:08.404Z,3.47
2022-11-10T17:53:24.274Z,6.00
2022-11-10T17:56:26.616Z,5.43
2022-11-10T17:59:31.574Z,4.07
2022-11-10T18:02:33.737Z,5.43
2022-11-10T18:05:36.097Z,3.92
2022-11-10T18:08:38.666Z,4.93
2022-11-10T18:11:40.806Z,5.80
2022-11-10T18:14:42.800Z,4.95
2022-11-10T18:17:45.389Z,6.75
2022-11-10T18:20:47.573Z,4.65
2022-11-10T18:23:49.634Z,6.07
2022-11-10T18:26:51.690Z,5.53
2022-11-10T18:29:54.672Z,5.47
2022-11-10T18:32:57.243Z,6.28
2022-11-10T18:36:00.496Z,6.90
2022-11-10T18:39:02.595Z,6.38
2022-11-10T18:42:05.509Z,7.90
2022-11-10T18:45:07.854Z,5.75
2022-11-10T18:48:11.173Z,5.30
2022-11-10T18:51:16.347Z,5.43
2022-11-10T18:54:18.575Z,7.20
2022-11-10T18:57:21.012Z,5.45
2022-11-10T19:00:23.229Z,7.35
2022-11-10T19:03:25.671Z,8.18
2022-11-10T19:06:28.149Z,7.28
2022-11-10T19:09:30.256Z,6.63
2022-11-10T19:12:33.439Z,5.65
2022-11-10T19:15:44.051Z,7.07
2022-11-10T19:18:46.606Z,6.63
2022-11-10T19:21:48.603Z,5.82
2022-11-10T19:28:15.567Z,6.15
2022-11-10T19:31:19.112Z,5.28
2022-11-10T19:34:21.424Z,5.70
2022-11-10T19:37:23.536Z,4.68
2022-11-10T19:40:25.671Z,6.13
2022-11-10T19:43:30.934Z,5.90
2022-11-10T19:46:36.787Z,6.47
2022-11-10T19:49:38.915Z,5.70
2022-11-10T19:52:41.444Z,5.72
2022-11-10T19:55:43.429Z,5.05
2022-11-10T19:58:46.281Z,4.00
2022-11-10T20:01:48.392Z,4.93
2022-11-10T20:05:09.091Z,6.22
2022-11-10T20:08:12.994Z,6.63
2022-11-10T20:11:18.394Z,6.63
2022-11-10T20:14:21.176Z,3.63
2022-11-10T20:17:23.210Z,3.85
2022-11-10T20:20:26.401Z,4.30
2022-11-10T20:23:33.799Z,4.47
2022-11-10T20:26:36.542Z,4.67
2022-11-10T20:29:38.533Z,4.65
2022-11-10T20:32:40.562Z,3.80
2022-11-10T20:35:44.426Z,4.57
2022-11-10T20:38:46.968Z,4.97
2022-11-10T20:41:50.900Z,4.25
2022-11-10T20:44:53.297Z,4.55
2022-11-10T20:47:55.392Z,3.58
2022-11-10T20:50:57.559Z,6.75
2022-11-10T20:54:02.878Z,3.90
2022-11-10T20:57:04.922Z,5.63
2022-11-10T21:00:07.732Z,5.30
2022-11-10T21:03:09.829Z,6.90
2022-11-10T21:06:11.875Z,3.63
2022-11-10T21:09:14.087Z,3.40
2022-11-10T21:12:34.572Z,4.93
2022-11-10T21:15:39.826Z,3.50
2022-11-10T21:18:43.055Z,4.57
2022-11-10T21:21:45.206Z,3.35
2022-11-10T21:24:47.252Z,3.35
2022-11-10T21:27:49.336Z,4.35
2022-11-10T21:30:52.003Z,3.72
2022-11-10T21:33:58.486Z,4.22
2022-11-10T21:37:01.002Z,3.78
2022-11-10T21:40:03.393Z,4.57
2022-11-10T21:43:05.572Z,3.25
2022-11-10T21:46:08.300Z,3.85
2022-11-10T21:49:10.326Z,3.58
2022-11-10T21:52:12.446Z,3.70
2022-11-10T21:55:14.531Z,3.60
2022-11-10T21:58:16.572Z,3.90
2022-11-10T22:01:19.458Z,3.05
2022-11-10T22:04:21.642Z,3.67
2022-11-10T22:07:23.702Z,3.38
2022-11-10T22:10:44.370Z,2.40
2022-11-10T22:14:05.682Z,4.53
2022-11-10T22:17:34.262Z,2.63
2022-11-10T22:20:44.836Z,3.03
2022-11-10T22:24:05.292Z,3.60
2022-11-10T22:27:08.327Z,4.15
2022-11-10T22:30:10.634Z,3.30
2022-11-10T22:33:27.665Z,4.22
2022-11-10T22:36:29.716Z,4.00
2022-11-10T22:39:50.253Z,4.20
2022-11-10T22:43:10.825Z,3.50
2022-11-10T22:46:13.165Z,3.67
2022-11-10T22:49:16.833Z,3.55
2022-11-10T22:52:18.927Z,2.92
2022-11-10T22:55:20.999Z,4.32
2022-11-10T22:58:23.094Z,3.85
2022-11-10T23:01:25.360Z,3.75
2022-11-10T23:04:28.327Z,2.33
2022-11-10T23:07:30.337Z,2.53
2022-11-10T23:10:32.412Z,2.53
2022-11-10T23:13:36.684Z,2.45
2022-11-10T23:16:38.764Z,3.42
2022-11-10T23:19:40.907Z,3.67
2022-11-10T23:22:42.976Z,2.33
2022-11-10T23:26:01.207Z,3.10
2022-11-10T23:29:03.565Z,2.90
2022-11-10T23:32:05.816Z,2.95
2022-11-10T23:35:08.703Z,2.65
2022-11-10T23:38:12.281Z,3.03
2022-11-10T23:41:23.770Z,3.17
2022-11-10T23:44:26.016Z,3.17
2022-11-10T23:47:28.625Z,2.70
2022-11-10T23:50:30.724Z,4.18
2022-11-10T23:53:34.909Z,3.17
2022-11-10T23:56:36.979Z,2.90
2022-11-10T23:59:39.009Z,3.08
